sensor_id;sensor_type;location;lat;lon;timestamp;P1;durP1;ratioP1;P2;durP2;ratioP2
16699;SDS011;8466;52.286;21.124;2023-11-19T00:01:00;46.20;;;29.60;;
16699;SDS011;8466;52.286;21.124;2023-11-19T00:03:28;48.00;;;30.43;;
16699;SDS011;8466;52.286;21.124;2023-11-19T00:05:57;45.50;;;30.27;;
16699;SDS011;8466;52.286;21.124;2023-11-19T00:08:26;44.17;;;27.93;;
16699;SDS011;8466;52.286;21.124;2023-11-19T00:10:55;41.83;;;28.97;;
16699;SDS011;8466;52.286;21.124;2023-11-19T00:13:23;45.50;;;29.43;;
16699;SDS011;8466;52.286;21.124;2023-11-19T00:15:54;45.03;;;29.30;;
16699;SDS011;8466;52.286;21.124;2023-11-19T00:18:23;48.13;;;29.27;;
16699;SDS011;8466;52.286;21.124;2023-11-19T00:20:52;43.10;;;28.50;;
16699;SDS011;8466;52.286;21.124;2023-11-19T00:23:21;44.73;;;29.40;;
16699;SDS011;8466;52.286;21.124;2023-11-19T00:25:49;45.73;;;29.17;;
16699;SDS011;8466;52.286;21.124;2023-11-19T00:28:18;44.47;;;29.80;;
16699;SDS011;8466;52.286;21.124;2023-11-19T00:30:47;46.43;;;29.30;;
16699;SDS011;8466;52.286;21.124;2023-11-19T00:33:17;48.30;;;29.03;;
16699;SDS011;8466;52.286;21.124;2023-11-19T00:35:46;46.27;;;29.77;;
16699;SDS011;8466;52.286;21.124;2023-11-19T00:38:15;47.90;;;29.97;;
16699;SDS011;8466;52.286;21.124;2023-11-19T00:40:43;42.57;;;28.07;;
16699;SDS011;8466;52.286;21.124;2023-11-19T00:43:12;45.03;;;28.53;;
16699;SDS011;8466;52.286;21.124;2023-11-19T00:45:41;41.73;;;27.53;;
16699;SDS011;8466;52.286;21.124;2023-11-19T00:48:09;46.77;;;29.53;;
16699;SDS011;8466;52.286;21.124;2023-11-19T00:50:40;46.20;;;28.77;;
16699;SDS011;8466;52.286;21.124;2023-11-19T00:53:11;47.67;;;28.60;;
16699;SDS011;8466;52.286;21.124;2023-11-19T00:55:40;43.33;;;28.30;;
16699;SDS011;8466;52.286;21.124;2023-11-19T00:58:12;48.53;;;28.57;;
16699;SDS011;8466;52.286;21.124;2023-11-19T01:00:41;42.10;;;27.80;;
16699;SDS011;8466;52.286;21.124;2023-11-19T01:03:10;44.63;;;27.80;;
16699;SDS011;8466;52.286;21.124;2023-11-19T01:05:41;46.87;;;29.23;;
16699;SDS011;8466;52.286;21.124;2023-11-19T01:08:10;47.70;;;27.87;;
16699;SDS011;8466;52.286;21.124;2023-11-19T01:10:39;44.00;;;27.70;;
16699;SDS011;8466;52.286;21.124;2023-11-19T01:13:08;43.70;;;27.40;;
16699;SDS011;8466;52.286;21.124;2023-11-19T01:15:36;44.80;;;27.33;;
16699;SDS011;8466;52.286;21.124;2023-11-19T01:18:08;48.57;;;29.13;;
16699;SDS011;8466;52.286;21.124;2023-11-19T01:20:37;46.53;;;29.20;;
16699;SDS011;8466;52.286;21.124;2023-11-19T01:23:07;45.23;;;28.73;;
16699;SDS011;8466;52.286;21.124;2023-11-19T01:25:35;41.77;;;28.30;;
16699;SDS011;8466;52.286;21.124;2023-11-19T01:28:04;43.40;;;26.10;;
16699;SDS011;8466;52.286;21.124;2023-11-19T01:30:33;41.63;;;26.93;;
16699;SDS011;8466;52.286;21.124;2023-11-19T01:33:02;42.87;;;26.83;;
16699;SDS011;8466;52.286;21.124;2023-11-19T01:35:31;46.53;;;28.63;;
16699;SDS011;8466;52.286;21.124;2023-11-19T01:37:59;42.87;;;26.87;;
16699;SDS011;8466;52.286;21.124;2023-11-19T01:40:29;43.27;;;27.70;;
16699;SDS011;8466;52.286;21.124;2023-11-19T01:42:58;45.50;;;28.30;;
16699;SDS011;8466;52.286;21.124;2023-11-19T01:45:27;38.87;;;26.70;;
16699;SDS011;8466;52.286;21.124;2023-11-19T01:47:57;47.80;;;29.10;;
16699;SDS011;8466;52.286;21.124;2023-11-19T01:50:28;40.07;;;26.40;;
16699;SDS011;8466;52.286;21.124;2023-11-19T01:52:58;43.57;;;27.27;;
16699;SDS011;8466;52.286;21.124;2023-11-19T01:55:27;41.53;;;27.00;;
16699;SDS011;8466;52.286;21.124;2023-11-19T01:57:59;42.60;;;27.97;;
16699;SDS011;8466;52.286;21.124;2023-11-19T02:00:29;42.10;;;27.37;;
16699;SDS011;8466;52.286;21.124;2023-11-19T02:03:00;42.13;;;27.53;;
16699;SDS011;8466;52.286;21.124;2023-11-19T02:05:30;44.87;;;27.67;;
16699;SDS011;8466;52.286;21.124;2023-11-19T02:08:00;44.40;;;26.73;;
16699;SDS011;8466;52.286;21.124;2023-11-19T02:10:31;42.67;;;27.60;;
16699;SDS011;8466;52.286;21.124;2023-11-19T02:13:00;46.63;;;30.70;;
16699;SDS011;8466;52.286;21.124;2023-11-19T02:15:32;52.00;;;31.50;;
16699;SDS011;8466;52.286;21.124;2023-11-19T02:18:20;46.83;;;34.60;;
16699;SDS011;8466;52.286;21.124;2023-11-19T02:20:50;49.83;;;32.17;;
16699;SDS011;8466;52.286;21.124;2023-11-19T02:23:19;46.40;;;29.83;;
16699;SDS011;8466;52.286;21.124;2023-11-19T02:25:53;49.33;;;30.00;;
16699;SDS011;8466;52.286;21.124;2023-11-19T02:28:31;49.53;;;30.13;;
16699;SDS011;8466;52.286;21.124;2023-11-19T02:31:00;50.20;;;29.83;;
16699;SDS011;8466;52.286;21.124;2023-11-19T02:33:31;55.67;;;31.30;;
16699;SDS011;8466;52.286;21.124;2023-11-19T02:36:00;51.17;;;30.00;;
16699;SDS011;8466;52.286;21.124;2023-11-19T02:38:30;48.33;;;29.27;;
16699;SDS011;8466;52.286;21.124;2023-11-19T02:40:59;48.50;;;30.20;;
16699;SDS011;8466;52.286;21.124;2023-11-19T02:43:33;45.03;;;27.67;;
16699;SDS011;8466;52.286;21.124;2023-11-19T02:46:02;47.57;;;28.80;;
16699;SDS011;8466;52.286;21.124;2023-11-19T02:48:36;42.03;;;27.43;;
16699;SDS011;8466;52.286;21.124;2023-11-19T02:51:05;43.43;;;27.13;;
16699;SDS011;8466;52.286;21.124;2023-11-19T02:53:36;43.37;;;26.43;;
16699;SDS011;8466;52.286;21.124;2023-11-19T02:56:07;45.90;;;27.33;;
16699;SDS011;8466;52.286;21.124;2023-11-19T02:58:48;41.70;;;26.73;;
16699;SDS011;8466;52.286;21.124;2023-11-19T03:01:21;43.03;;;26.43;;
16699;SDS011;8466;52.286;21.124;2023-11-19T03:03:57;44.40;;;26.30;;
16699;SDS011;8466;52.286;21.124;2023-11-19T03:06:30;43.67;;;26.87;;
16699;SDS011;8466;52.286;21.124;2023-11-19T03:08:59;43.53;;;25.87;;
16699;SDS011;8466;52.286;21.124;2023-11-19T03:11:32;45.67;;;27.23;;
16699;SDS011;8466;52.286;21.124;2023-11-19T03:14:02;43.43;;;26.70;;
16699;SDS011;8466;52.286;21.124;2023-11-19T03:16:31;44.77;;;26.53;;
16699;SDS011;8466;52.286;21.124;2023-11-19T03:19:00;48.03;;;27.23;;
16699;SDS011;8466;52.286;21.124;2023-11-19T03:21:31;46.53;;;28.07;;
16699;SDS011;8466;52.286;21.124;2023-11-19T03:23:59;42.97;;;26.90;;
16699;SDS011;8466;52.286;21.124;2023-11-19T03:26:27;46.30;;;27.03;;
16699;SDS011;8466;52.286;21.124;2023-11-19T03:28:56;45.47;;;28.03;;
16699;SDS011;8466;52.286;21.124;2023-11-19T03:31:26;46.13;;;27.33;;
16699;SDS011;8466;52.286;21.124;2023-11-19T03:33:55;47.07;;;28.57;;
16699;SDS011;8466;52.286;21.124;2023-11-19T03:36:25;46.37;;;27.30;;
16699;SDS011;8466;52.286;21.124;2023-11-19T03:38:59;49.07;;;28.73;;
16699;SDS011;8466;52.286;21.124;2023-11-19T03:41:28;45.87;;;27.77;;
16699;SDS011;8466;52.286;21.124;2023-11-19T03:44:07;48.83;;;29.10;;
16699;SDS011;8466;52.286;21.124;2023-11-19T03:46:37;48.47;;;28.47;;
16699;SDS011;8466;52.286;21.124;2023-11-19T03:49:06;43.70;;;27.10;;
16699;SDS011;8466;52.286;21.124;2023-11-19T03:51:35;46.73;;;27.30;;
16699;SDS011;8466;52.286;21.124;2023-11-19T03:54:03;42.00;;;26.27;;
16699;SDS011;8466;52.286;21.124;2023-11-19T03:56:34;43.03;;;26.47;;
16699;SDS011;8466;52.286;21.124;2023-11-19T03:59:03;44.00;;;27.03;;
16699;SDS011;8466;52.286;21.124;2023-11-19T04:01:32;46.43;;;26.90;;
16699;SDS011;8466;52.286;21.124;2023-11-19T04:04:02;47.57;;;26.73;;
16699;SDS011;8466;52.286;21.124;2023-11-19T04:06:31;47.70;;;27.97;;
16699;SDS011;8466;52.286;21.124;2023-11-19T04:08:59;44.43;;;27.40;;
16699;SDS011;8466;52.286;21.124;2023-11-19T04:11:28;44.00;;;27.27;;
16699;SDS011;8466;52.286;21.124;2023-11-19T04:13:57;46.30;;;27.10;;
16699;SDS011;8466;52.286;21.124;2023-11-19T04:16:26;48.40;;;26.80;;
16699;SDS011;8466;52.286;21.124;2023-11-19T04:18:56;44.93;;;27.17;;
16699;SDS011;8466;52.286;21.124;2023-11-19T04:21:26;43.97;;;27.50;;
16699;SDS011;8466;52.286;21.124;2023-11-19T04:23:54;46.17;;;27.37;;
16699;SDS011;8466;52.286;21.124;2023-11-19T04:26:23;41.97;;;24.87;;
16699;SDS011;8466;52.286;21.124;2023-11-19T04:28:52;47.33;;;27.43;;
16699;SDS011;8466;52.286;21.124;2023-11-19T04:31:20;45.47;;;26.93;;
16699;SDS011;8466;52.286;21.124;2023-11-19T04:33:50;41.30;;;25.00;;
16699;SDS011;8466;52.286;21.124;2023-11-19T04:36:18;43.90;;;26.40;;
16699;SDS011;8466;52.286;21.124;2023-11-19T04:38:52;45.47;;;26.63;;
16699;SDS011;8466;52.286;21.124;2023-11-19T04:41:21;46.97;;;27.87;;
16699;SDS011;8466;52.286;21.124;2023-11-19T04:43:49;49.00;;;27.10;;
16699;SDS011;8466;52.286;21.124;2023-11-19T04:46:18;48.97;;;26.73;;
16699;SDS011;8466;52.286;21.124;2023-11-19T04:48:47;51.00;;;28.90;;
16699;SDS011;8466;52.286;21.124;2023-11-19T04:51:16;51.30;;;28.17;;
16699;SDS011;8466;52.286;21.124;2023-11-19T04:53:44;52.87;;;29.30;;
16699;SDS011;8466;52.286;21.124;2023-11-19T04:56:14;53.27;;;28.63;;
16699;SDS011;8466;52.286;21.124;2023-11-19T04:58:46;53.57;;;28.77;;
16699;SDS011;8466;52.286;21.124;2023-11-19T05:01:15;50.87;;;28.00;;
16699;SDS011;8466;52.286;21.124;2023-11-19T05:03:44;48.63;;;27.20;;
16699;SDS011;8466;52.286;21.124;2023-11-19T05:06:13;56.77;;;29.87;;
16699;SDS011;8466;52.286;21.124;2023-11-19T05:08:42;53.67;;;28.13;;
16699;SDS011;8466;52.286;21.124;2023-11-19T05:11:10;49.50;;;27.77;;
16699;SDS011;8466;52.286;21.124;2023-11-19T05:13:46;50.47;;;27.93;;
16699;SDS011;8466;52.286;21.124;2023-11-19T05:16:14;53.73;;;29.37;;
16699;SDS011;8466;52.286;21.124;2023-11-19T05:18:44;50.73;;;27.67;;
16699;SDS011;8466;52.286;21.124;2023-11-19T05:21:12;52.60;;;27.73;;
16699;SDS011;8466;52.286;21.124;2023-11-19T05:23:41;52.60;;;28.70;;
16699;SDS011;8466;52.286;21.124;2023-11-19T05:26:16;51.47;;;28.10;;
16699;SDS011;8466;52.286;21.124;2023-11-19T05:28:47;50.20;;;26.50;;
16699;SDS011;8466;52.286;21.124;2023-11-19T05:31:17;53.50;;;28.53;;
16699;SDS011;8466;52.286;21.124;2023-11-19T05:33:46;50.03;;;28.93;;
16699;SDS011;8466;52.286;21.124;2023-11-19T05:36:15;51.30;;;27.90;;
16699;SDS011;8466;52.286;21.124;2023-11-19T05:38:43;47.33;;;27.93;;
16699;SDS011;8466;52.286;21.124;2023-11-19T05:41:12;47.63;;;26.43;;
16699;SDS011;8466;52.286;21.124;2023-11-19T05:43:42;50.20;;;26.83;;
16699;SDS011;8466;52.286;21.124;2023-11-19T05:46:12;44.63;;;25.17;;
16699;SDS011;8466;52.286;21.124;2023-11-19T05:48:43;48.80;;;26.33;;
16699;SDS011;8466;52.286;21.124;2023-11-19T05:51:13;45.03;;;24.40;;
16699;SDS011;8466;52.286;21.124;2023-11-19T05:53:43;43.50;;;25.67;;
16699;SDS011;8466;52.286;21.124;2023-11-19T05:56:12;39.60;;;24.03;;
16699;SDS011;8466;52.286;21.124;2023-11-19T05:58:42;41.83;;;23.33;;
16699;SDS011;8466;52.286;21.124;2023-11-19T06:01:13;45.00;;;25.13;;
16699;SDS011;8466;52.286;21.124;2023-11-19T06:03:41;38.13;;;23.30;;
16699;SDS011;8466;52.286;21.124;2023-11-19T06:06:14;36.10;;;23.43;;
16699;SDS011;8466;52.286;21.124;2023-11-19T06:08:42;43.23;;;23.97;;
16699;SDS011;8466;52.286;21.124;2023-11-19T06:11:11;40.00;;;24.87;;
16699;SDS011;8466;52.286;21.124;2023-11-19T06:13:45;42.23;;;26.27;;
16699;SDS011;8466;52.286;21.124;2023-11-19T06:19:36;41.07;;;23.00;;
16699;SDS011;8466;52.286;21.124;2023-11-19T06:22:05;36.77;;;21.70;;
16699;SDS011;8466;52.286;21.124;2023-11-19T06:24:34;36.87;;;21.37;;
16699;SDS011;8466;52.286;21.124;2023-11-19T06:27:07;32.37;;;21.03;;
16699;SDS011;8466;52.286;21.124;2023-11-19T06:29:36;35.40;;;22.00;;
16699;SDS011;8466;52.286;21.124;2023-11-19T06:32:05;36.33;;;21.63;;
16699;SDS011;8466;52.286;21.124;2023-11-19T06:34:38;34.60;;;20.43;;
16699;SDS011;8466;52.286;21.124;2023-11-19T06:37:07;35.37;;;21.70;;
16699;SDS011;8466;52.286;21.124;2023-11-19T06:39:36;35.70;;;21.77;;
16699;SDS011;8466;52.286;21.124;2023-11-19T06:42:05;32.83;;;21.67;;
16699;SDS011;8466;52.286;21.124;2023-11-19T06:44:33;34.53;;;22.20;;
16699;SDS011;8466;52.286;21.124;2023-11-19T06:47:02;34.10;;;21.77;;
16699;SDS011;8466;52.286;21.124;2023-11-19T06:49:31;33.87;;;21.90;;
16699;SDS011;8466;52.286;21.124;2023-11-19T06:52:01;34.83;;;21.23;;
16699;SDS011;8466;52.286;21.124;2023-11-19T06:54:31;37.50;;;23.07;;
16699;SDS011;8466;52.286;21.124;2023-11-19T06:57:02;37.53;;;23.67;;
16699;SDS011;8466;52.286;21.124;2023-11-19T06:59:31;34.00;;;21.40;;
16699;SDS011;8466;52.286;21.124;2023-11-19T07:02:00;28.60;;;19.13;;
16699;SDS011;8466;52.286;21.124;2023-11-19T07:04:29;29.60;;;18.87;;
16699;SDS011;8466;52.286;21.124;2023-11-19T07:06:57;31.50;;;20.23;;
16699;SDS011;8466;52.286;21.124;2023-11-19T07:09:27;31.57;;;19.40;;
16699;SDS011;8466;52.286;21.124;2023-11-19T07:11:56;27.90;;;18.43;;
16699;SDS011;8466;52.286;21.124;2023-11-19T07:14:26;28.33;;;18.63;;
16699;SDS011;8466;52.286;21.124;2023-11-19T07:16:55;28.20;;;18.53;;
16699;SDS011;8466;52.286;21.124;2023-11-19T07:19:24;31.10;;;19.13;;
16699;SDS011;8466;52.286;21.124;2023-11-19T07:21:52;27.37;;;17.77;;
16699;SDS011;8466;52.286;21.124;2023-11-19T07:24:21;28.77;;;18.10;;
16699;SDS011;8466;52.286;21.124;2023-11-19T07:26:52;25.93;;;16.50;;
16699;SDS011;8466;52.286;21.124;2023-11-19T07:29:21;23.17;;;15.93;;
16699;SDS011;8466;52.286;21.124;2023-11-19T07:31:53;21.90;;;15.23;;
16699;SDS011;8466;52.286;21.124;2023-11-19T07:34:23;22.90;;;14.73;;
16699;SDS011;8466;52.286;21.124;2023-11-19T07:36:52;20.30;;;15.03;;
16699;SDS011;8466;52.286;21.124;2023-11-19T07:39:21;22.00;;;15.07;;
16699;SDS011;8466;52.286;21.124;2023-11-19T07:41:50;15.97;;;12.30;;
16699;SDS011;8466;52.286;21.124;2023-11-19T07:44:20;16.73;;;13.13;;
16699;SDS011;8466;52.286;21.124;2023-11-19T07:46:49;19.33;;;13.80;;
16699;SDS011;8466;52.286;21.124;2023-11-19T07:49:17;17.33;;;12.97;;
16699;SDS011;8466;52.286;21.124;2023-11-19T07:51:46;15.67;;;12.33;;
16699;SDS011;8466;52.286;21.124;2023-11-19T07:54:15;17.57;;;13.50;;
16699;SDS011;8466;52.286;21.124;2023-11-19T07:56:44;18.20;;;13.83;;
16699;SDS011;8466;52.286;21.124;2023-11-19T07:59:12;16.33;;;12.80;;
16699;SDS011;8466;52.286;21.124;2023-11-19T08:01:42;16.67;;;12.60;;
16699;SDS011;8466;52.286;21.124;2023-11-19T08:04:12;17.83;;;12.93;;
16699;SDS011;8466;52.286;21.124;2023-11-19T08:06:42;18.53;;;13.77;;
16699;SDS011;8466;52.286;21.124;2023-11-19T08:09:12;18.60;;;14.30;;
16699;SDS011;8466;52.286;21.124;2023-11-19T08:11:41;20.63;;;15.03;;
16699;SDS011;8466;52.286;21.124;2023-11-19T08:14:10;18.37;;;14.47;;
16699;SDS011;8466;52.286;21.124;2023-11-19T08:16:39;20.03;;;15.00;;
16699;SDS011;8466;52.286;21.124;2023-11-19T08:19:09;19.37;;;14.13;;
16699;SDS011;8466;52.286;21.124;2023-11-19T08:21:38;19.60;;;14.73;;
16699;SDS011;8466;52.286;21.124;2023-11-19T08:24:07;18.03;;;13.60;;
16699;SDS011;8466;52.286;21.124;2023-11-19T08:26:35;16.67;;;12.93;;
16699;SDS011;8466;52.286;21.124;2023-11-19T08:29:04;16.37;;;13.23;;
16699;SDS011;8466;52.286;21.124;2023-11-19T08:31:33;17.47;;;13.60;;
16699;SDS011;8466;52.286;21.124;2023-11-19T08:34:02;17.93;;;13.93;;
16699;SDS011;8466;52.286;21.124;2023-11-19T08:36:32;17.13;;;14.10;;
16699;SDS011;8466;52.286;21.124;2023-11-19T08:39:00;17.17;;;13.53;;
16699;SDS011;8466;52.286;21.124;2023-11-19T08:41:29;18.13;;;14.53;;
16699;SDS011;8466;52.286;21.124;2023-11-19T08:43:58;16.23;;;13.17;;
16699;SDS011;8466;52.286;21.124;2023-11-19T08:46:27;17.33;;;13.93;;
16699;SDS011;8466;52.286;21.124;2023-11-19T08:48:56;18.67;;;13.93;;
16699;SDS011;8466;52.286;21.124;2023-11-19T08:51:24;17.90;;;13.57;;
16699;SDS011;8466;52.286;21.124;2023-11-19T08:53:56;15.83;;;13.20;;
16699;SDS011;8466;52.286;21.124;2023-11-19T08:56:25;15.87;;;12.43;;
16699;SDS011;8466;52.286;21.124;2023-11-19T08:58:58;16.67;;;13.33;;
16699;SDS011;8466;52.286;21.124;2023-11-19T09:01:27;15.27;;;12.40;;
16699;SDS011;8466;52.286;21.124;2023-11-19T09:03:55;14.20;;;12.20;;
16699;SDS011;8466;52.286;21.124;2023-11-19T09:06:24;15.57;;;12.57;;
16699;SDS011;8466;52.286;21.124;2023-11-19T09:08:53;16.33;;;13.83;;
16699;SDS011;8466;52.286;21.124;2023-11-19T09:11:27;15.63;;;12.30;;
16699;SDS011;8466;52.286;21.124;2023-11-19T09:13:56;14.63;;;12.13;;
16699;SDS011;8466;52.286;21.124;2023-11-19T09:16:24;16.67;;;13.80;;
16699;SDS011;8466;52.286;21.124;2023-11-19T09:18:53;16.93;;;13.00;;
16699;SDS011;8466;52.286;21.124;2023-11-19T09:21:21;15.40;;;12.90;;
16699;SDS011;8466;52.286;21.124;2023-11-19T09:23:50;16.83;;;13.47;;
16699;SDS011;8466;52.286;21.124;2023-11-19T09:26:22;14.70;;;12.23;;
16699;SDS011;8466;52.286;21.124;2023-11-19T09:28:50;15.80;;;12.37;;
16699;SDS011;8466;52.286;21.124;2023-11-19T09:31:19;15.47;;;12.87;;
16699;SDS011;8466;52.286;21.124;2023-11-19T09:33:48;16.63;;;13.00;;
16699;SDS011;8466;52.286;21.124;2023-11-19T09:36:17;15.70;;;13.10;;
16699;SDS011;8466;52.286;21.124;2023-11-19T09:38:45;13.90;;;11.60;;
16699;SDS011;8466;52.286;21.124;2023-11-19T09:41:14;16.20;;;13.30;;
16699;SDS011;8466;52.286;21.124;2023-11-19T09:43:47;17.37;;;13.30;;
16699;SDS011;8466;52.286;21.124;2023-11-19T09:46:16;15.70;;;13.50;;
16699;SDS011;8466;52.286;21.124;2023-11-19T09:48:45;16.20;;;13.87;;
16699;SDS011;8466;52.286;21.124;2023-11-19T09:51:17;16.73;;;13.40;;
16699;SDS011;8466;52.286;21.124;2023-11-19T09:53:52;18.07;;;12.97;;
16699;SDS011;8466;52.286;21.124;2023-11-19T09:56:20;16.30;;;14.23;;
16699;SDS011;8466;52.286;21.124;2023-11-19T09:58:52;17.33;;;13.60;;
16699;SDS011;8466;52.286;21.124;2023-11-19T10:01:21;16.13;;;13.43;;
16699;SDS011;8466;52.286;21.124;2023-11-19T10:03:55;16.57;;;13.23;;
16699;SDS011;8466;52.286;21.124;2023-11-19T10:06:24;16.77;;;13.53;;
16699;SDS011;8466;52.286;21.124;2023-11-19T10:08:54;18.57;;;14.00;;
16699;SDS011;8466;52.286;21.124;2023-11-19T10:11:23;17.70;;;13.80;;
16699;SDS011;8466;52.286;21.124;2023-11-19T10:13:53;18.30;;;14.43;;
16699;SDS011;8466;52.286;21.124;2023-11-19T10:16:27;19.13;;;15.03;;
16699;SDS011;8466;52.286;21.124;2023-11-19T10:18:58;18.17;;;14.33;;
16699;SDS011;8466;52.286;21.124;2023-11-19T10:21:26;19.10;;;14.70;;
16699;SDS011;8466;52.286;21.124;2023-11-19T10:23:58;19.37;;;15.50;;
16699;SDS011;8466;52.286;21.124;2023-11-19T10:26:27;20.00;;;15.52;;
16699;SDS011;8466;52.286;21.124;2023-11-19T10:28:57;16.47;;;14.07;;
16699;SDS011;8466;52.286;21.124;2023-11-19T10:31:26;18.63;;;14.30;;
16699;SDS011;8466;52.286;21.124;2023-11-19T10:33:56;18.13;;;14.37;;
16699;SDS011;8466;52.286;21.124;2023-11-19T10:36:37;16.43;;;13.37;;
16699;SDS011;8466;52.286;21.124;2023-11-19T10:39:07;18.20;;;14.90;;
16699;SDS011;8466;52.286;21.124;2023-11-19T10:41:36;17.07;;;14.43;;
16699;SDS011;8466;52.286;21.124;2023-11-19T10:44:07;21.13;;;15.83;;
16699;SDS011;8466;52.286;21.124;2023-11-19T10:46:36;17.93;;;15.07;;
16699;SDS011;8466;52.286;21.124;2023-11-19T10:49:07;17.77;;;14.33;;
16699;SDS011;8466;52.286;21.124;2023-11-19T10:51:38;20.47;;;16.60;;
16699;SDS011;8466;52.286;21.124;2023-11-19T10:54:13;18.63;;;14.77;;
16699;SDS011;8466;52.286;21.124;2023-11-19T10:56:49;17.73;;;13.57;;
16699;SDS011;8466;52.286;21.124;2023-11-19T10:59:25;17.23;;;13.80;;
16699;SDS011;8466;52.286;21.124;2023-11-19T11:02:00;18.40;;;13.97;;
16699;SDS011;8466;52.286;21.124;2023-11-19T11:04:34;17.50;;;14.30;;
16699;SDS011;8466;52.286;21.124;2023-11-19T11:07:08;19.93;;;14.40;;
16699;SDS011;8466;52.286;21.124;2023-11-19T11:09:38;22.30;;;17.27;;
16699;SDS011;8466;52.286;21.124;2023-11-19T11:12:10;20.10;;;14.87;;
16699;SDS011;8466;52.286;21.124;2023-11-19T11:14:41;19.73;;;15.03;;
16699;SDS011;8466;52.286;21.124;2023-11-19T11:17:12;22.60;;;16.63;;
16699;SDS011;8466;52.286;21.124;2023-11-19T11:19:43;22.07;;;16.30;;
16699;SDS011;8466;52.286;21.124;2023-11-19T11:22:12;20.80;;;14.83;;
16699;SDS011;8466;52.286;21.124;2023-11-19T11:28:04;28.23;;;18.20;;
16699;SDS011;8466;52.286;21.124;2023-11-19T11:30:52;22.50;;;16.30;;
16699;SDS011;8466;52.286;21.124;2023-11-19T11:33:34;20.57;;;15.90;;
16699;SDS011;8466;52.286;21.124;2023-11-19T11:36:30;22.93;;;17.33;;
16699;SDS011;8466;52.286;21.124;2023-11-19T11:39:06;18.60;;;15.50;;
16699;SDS011;8466;52.286;21.124;2023-11-19T11:41:35;21.60;;;15.53;;
16699;SDS011;8466;52.286;21.124;2023-11-19T11:44:05;20.25;;;16.10;;
16699;SDS011;8466;52.286;21.124;2023-11-19T11:49:25;19.00;;;14.83;;
16699;SDS011;8466;52.286;21.124;2023-11-19T11:52:03;20.50;;;15.07;;
16699;SDS011;8466;52.286;21.124;2023-11-19T11:54:32;18.63;;;14.07;;
16699;SDS011;8466;52.286;21.124;2023-11-19T11:57:08;19.57;;;15.53;;
16699;SDS011;8466;52.286;21.124;2023-11-19T11:59:47;20.10;;;15.77;;
16699;SDS011;8466;52.286;21.124;2023-11-19T12:02:19;18.53;;;14.47;;
16699;SDS011;8466;52.286;21.124;2023-11-19T12:04:49;20.73;;;14.83;;
16699;SDS011;8466;52.286;21.124;2023-11-19T12:07:21;22.10;;;15.87;;
16699;SDS011;8466;52.286;21.124;2023-11-19T12:09:55;19.73;;;15.10;;
16699;SDS011;8466;52.286;21.124;2023-11-19T12:12:35;18.33;;;14.10;;
16699;SDS011;8466;52.286;21.124;2023-11-19T12:15:07;20.63;;;14.20;;
16699;SDS011;8466;52.286;21.124;2023-11-19T12:17:48;19.15;;;14.95;;
16699;SDS011;8466;52.286;21.124;2023-11-19T12:20:22;22.90;;;16.73;;
16699;SDS011;8466;52.286;21.124;2023-11-19T12:22:54;27.30;;;20.17;;
16699;SDS011;8466;52.286;21.124;2023-11-19T12:25:23;25.63;;;19.43;;
16699;SDS011;8466;52.286;21.124;2023-11-19T12:27:52;21.33;;;16.43;;
16699;SDS011;8466;52.286;21.124;2023-11-19T12:30:22;20.87;;;15.93;;
16699;SDS011;8466;52.286;21.124;2023-11-19T12:32:53;26.13;;;18.63;;
16699;SDS011;8466;52.286;21.124;2023-11-19T12:35:22;29.67;;;22.50;;
16699;SDS011;8466;52.286;21.124;2023-11-19T12:37:52;19.30;;;15.07;;
16699;SDS011;8466;52.286;21.124;2023-11-19T12:40:21;20.50;;;15.37;;
16699;SDS011;8466;52.286;21.124;2023-11-19T12:42:52;20.33;;;15.27;;
16699;SDS011;8466;52.286;21.124;2023-11-19T12:45:22;21.50;;;16.00;;
16699;SDS011;8466;52.286;21.124;2023-11-19T12:48:05;19.97;;;15.43;;
16699;SDS011;8466;52.286;21.124;2023-11-19T12:50:50;21.10;;;15.67;;
16699;SDS011;8466;52.286;21.124;2023-11-19T12:53:19;21.70;;;16.47;;
16699;SDS011;8466;52.286;21.124;2023-11-19T12:55:48;20.50;;;16.20;;
16699;SDS011;8466;52.286;21.124;2023-11-19T12:58:31;20.23;;;15.90;;
16699;SDS011;8466;52.286;21.124;2023-11-19T13:01:01;19.47;;;14.97;;
16699;SDS011;8466;52.286;21.124;2023-11-19T13:03:33;19.63;;;16.30;;
16699;SDS011;8466;52.286;21.124;2023-11-19T13:06:04;23.70;;;17.63;;
16699;SDS011;8466;52.286;21.124;2023-11-19T13:08:36;20.93;;;16.63;;
16699;SDS011;8466;52.286;21.124;2023-11-19T13:11:06;21.67;;;17.57;;
16699;SDS011;8466;52.286;21.124;2023-11-19T13:16:22;19.93;;;15.20;;
16699;SDS011;8466;52.286;21.124;2023-11-19T13:18:52;20.58;;;18.38;;
16699;SDS011;8466;52.286;21.124;2023-11-19T13:21:21;22.93;;;19.43;;
16699;SDS011;8466;52.286;21.124;2023-11-19T13:23:50;23.93;;;19.77;;
16699;SDS011;8466;52.286;21.124;2023-11-19T13:26:19;21.37;;;16.50;;
16699;SDS011;8466;52.286;21.124;2023-11-19T13:28:48;21.20;;;16.10;;
16699;SDS011;8466;52.286;21.124;2023-11-19T13:31:17;26.57;;;21.10;;
16699;SDS011;8466;52.286;21.124;2023-11-19T13:33:46;24.80;;;19.57;;
16699;SDS011;8466;52.286;21.124;2023-11-19T13:36:16;22.83;;;18.63;;
16699;SDS011;8466;52.286;21.124;2023-11-19T13:38:46;25.77;;;19.30;;
16699;SDS011;8466;52.286;21.124;2023-11-19T13:41:15;26.93;;;21.00;;
16699;SDS011;8466;52.286;21.124;2023-11-19T13:43:45;21.60;;;16.10;;
16699;SDS011;8466;52.286;21.124;2023-11-19T13:46:15;23.97;;;19.07;;
16699;SDS011;8466;52.286;21.124;2023-11-19T13:48:44;24.80;;;18.33;;
16699;SDS011;8466;52.286;21.124;2023-11-19T13:51:13;29.73;;;21.30;;
16699;SDS011;8466;52.286;21.124;2023-11-19T13:53:43;29.70;;;21.10;;
16699;SDS011;8466;52.286;21.124;2023-11-19T13:56:15;29.23;;;21.27;;
16699;SDS011;8466;52.286;21.124;2023-11-19T13:58:45;29.07;;;20.57;;
16699;SDS011;8466;52.286;21.124;2023-11-19T14:01:14;30.73;;;21.30;;
16699;SDS011;8466;52.286;21.124;2023-11-19T14:03:43;25.10;;;18.63;;
16699;SDS011;8466;52.286;21.124;2023-11-19T14:06:12;31.43;;;22.13;;
16699;SDS011;8466;52.286;21.124;2023-11-19T14:08:41;27.93;;;21.80;;
16699;SDS011;8466;52.286;21.124;2023-11-19T14:11:11;25.50;;;19.67;;
16699;SDS011;8466;52.286;21.124;2023-11-19T14:13:40;25.97;;;19.60;;
16699;SDS011;8466;52.286;21.124;2023-11-19T14:16:09;26.27;;;20.60;;
16699;SDS011;8466;52.286;21.124;2023-11-19T14:18:39;27.57;;;19.93;;
16699;SDS011;8466;52.286;21.124;2023-11-19T14:21:08;72.20;;;39.47;;
16699;SDS011;8466;52.286;21.124;2023-11-19T14:23:37;94.37;;;50.50;;
16699;SDS011;8466;52.286;21.124;2023-11-19T14:26:05;55.23;;;34.80;;
16699;SDS011;8466;52.286;21.124;2023-11-19T14:28:36;32.40;;;22.83;;
16699;SDS011;8466;52.286;21.124;2023-11-19T14:31:21;29.23;;;20.77;;
16699;SDS011;8466;52.286;21.124;2023-11-19T14:33:59;27.17;;;19.43;;
16699;SDS011;8466;52.286;21.124;2023-11-19T14:36:28;26.20;;;18.63;;
16699;SDS011;8466;52.286;21.124;2023-11-19T14:38:57;28.50;;;21.07;;
16699;SDS011;8466;52.286;21.124;2023-11-19T14:41:27;26.83;;;18.63;;
16699;SDS011;8466;52.286;21.124;2023-11-19T14:43:57;28.37;;;23.73;;
16699;SDS011;8466;52.286;21.124;2023-11-19T14:46:26;32.13;;;21.40;;
16699;SDS011;8466;52.286;21.124;2023-11-19T14:48:55;29.33;;;20.70;;
16699;SDS011;8466;52.286;21.124;2023-11-19T14:51:24;27.70;;;20.07;;